Time;durP1;ratioP1;P1;durP2;ratioP2;P2;SDS_P1;SDS_P2;PMS_P1;PMS_P2;Temp;Humidity;BMP_temperature;BMP_pressure;BME280_temperature;BME280_humidity;BME280_pressure;Samples;Min_cycle;Max_cycle;Signal;HPM_P1;HPM_P2
2021/09/04 00:01:57;;;;;;;5.23;4.83;;;27.70;52.50;;;;;;5123057;28;20475;-45
2021/09/04 00:04:28;;;;;;;5.83;5.33;;;27.60;53.30;;;;;;5123263;28;20465;-43
2021/09/04 00:06:59;;;;;;;5.93;5.43;;;27.80;53.00;;;;;;5123696;28;20444;-43
2021/09/04 00:09:30;;;;;;;6.17;5.60;;;27.80;54.10;;;;;;5122432;28;20446;-43
2021/09/04 00:12:01;;;;;;;7.73;7.00;;;27.80;52.50;;;;;;5123092;28;20446;-44
2021/09/04 00:14:35;;;;;;;6.13;5.63;;;27.90;54.40;;;;;;5122571;28;20449;-49
2021/09/04 00:17:06;;;;;;;5.77;5.27;;;27.90;53.10;;;;;;5123225;28;20473;-49
2021/09/04 00:19:38;;;;;;;5.87;5.47;;;27.90;51.90;;;;;;5122902;28;20466;-42
2021/09/04 00:22:09;;;;;;;5.63;5.23;;;28.10;51.90;;;;;;5123205;28;20468;-48
2021/09/04 00:24:40;;;;;;;6.07;5.57;;;28.20;51.60;;;;;;5141072;28;20444;-46
2021/09/04 00:27:11;;;;;;;6.77;6.27;;;28.20;50.80;;;;;;5143689;28;20445;-45
2021/09/04 00:29:44;;;;;;;6.80;6.30;;;28.30;53.10;;;;;;5143398;27;20480;-44
2021/09/04 00:32:15;;;;;;;6.17;5.60;;;28.10;51.10;;;;;;5143311;27;20604;-43
2021/09/04 00:34:46;;;;;;;5.97;5.50;;;28.10;51.50;;;;;;5143305;28;20538;-42
2021/09/04 00:37:17;;;;;;;7.80;6.30;;;28.00;51.00;;;;;;5143659;27;20441;-40
2021/09/04 00:39:48;;;;;;;6.80;6.30;;;27.80;52.20;;;;;;5142707;27;20459;-40
2021/09/04 00:42:20;;;;;;;6.30;5.80;;;27.70;54.10;;;;;;5142949;28;20448;-43
2021/09/04 00:44:53;;;;;;;6.07;5.37;;;27.60;53.10;;;;;;5143271;28;20444;-40
2021/09/04 00:47:24;;;;;;;6.23;5.30;;;27.30;53.70;;;;;;5143463;28;20443;-40
2021/09/04 00:49:55;;;;;;;5.23;4.83;;;27.10;53.10;;;;;;5143095;28;20881;-41
2021/09/04 00:52:26;;;;;;;5.30;4.90;;;27.10;51.00;;;;;;5143514;28;20443;-42
2021/09/04 00:54:57;;;;;;;4.90;4.50;;;27.00;50.40;;;;;;5142834;27;20458;-41
2021/09/04 00:57:28;;;;;;;6.10;5.60;;;26.70;50.70;;;;;;5128086;27;20448;-42
2021/09/04 01:00:01;;;;;;;5.90;5.30;;;26.70;49.10;;;;;;5126172;28;20545;-40
2021/09/04 01:02:32;;;;;;;5.80;5.30;;;26.50;50.00;;;;;;5126002;28;20474;-41
2021/09/04 01:05:04;;;;;;;6.27;5.10;;;26.40;50.00;;;;;;5126327;28;20493;-41
2021/09/04 01:07:37;;;;;;;6.03;5.43;;;26.30;52.50;;;;;;5126062;28;20428;-40
2021/09/04 01:10:11;;;;;;;5.17;4.80;;;26.10;52.70;;;;;;5125860;28;20458;-44
2021/09/04 01:12:42;;;;;;;4.27;3.90;;;26.00;53.60;;;;;;5125625;28;20467;-43
2021/09/04 01:15:15;;;;;;;4.53;4.23;;;25.90;52.00;;;;;;5126095;28;20444;-43
2021/09/04 01:17:46;;;;;;;4.67;4.27;;;25.90;52.60;;;;;;5126004;28;20447;-42
2021/09/04 01:20:17;;;;;;;5.00;4.60;;;25.80;52.60;;;;;;5125952;28;20463;-40
2021/09/04 01:22:48;;;;;;;5.30;4.87;;;25.80;51.50;;;;;;5128569;27;20434;-43
2021/09/04 01:25:25;;;;;;;7.70;7.00;;;25.80;52.40;;;;;;5146009;27;20834;-41
2021/09/04 01:27:58;;;;;;;6.60;5.50;;;25.70;51.90;;;;;;5146035;27;20473;-40
2021/09/04 01:30:31;;;;;;;5.30;4.80;;;25.70;52.60;;;;;;5145990;27;20446;-40
2021/09/04 01:33:02;;;;;;;5.73;5.33;;;25.60;53.40;;;;;;5146263;27;20436;-41
2021/09/04 01:35:33;;;;;;;6.10;5.60;;;25.50;54.40;;;;;;5146353;27;20426;-41
2021/09/04 01:38:05;;;;;;;5.93;5.33;;;25.40;54.20;;;;;;5145971;27;20469;-40
2021/09/04 01:40:36;;;;;;;5.53;5.13;;;25.30;56.60;;;;;;5145587;27;20446;-46
2021/09/04 01:43:08;;;;;;;6.30;5.80;;;25.20;54.20;;;;;;5145530;27;20499;-40
2021/09/04 01:45:39;;;;;;;7.90;6.00;;;25.10;54.30;;;;;;5146028;27;20445;-41
2021/09/04 01:48:10;;;;;;;6.17;5.67;;;25.10;56.20;;;;;;5145869;27;20497;-43
2021/09/04 01:50:41;;;;;;;6.40;5.90;;;25.00;56.10;;;;;;5145900;27;20941;-41
2021/09/04 01:53:12;;;;;;;8.00;7.30;;;24.90;58.80;;;;;;5145565;27;20468;-40
2021/09/04 01:55:43;;;;;;;7.60;6.90;;;24.80;56.20;;;;;;5145140;27;20465;-42
2021/09/04 01:58:16;;;;;;;7.10;6.40;;;24.60;56.60;;;;;;5145453;27;20459;-41
2021/09/04 02:00:47;;;;;;;7.97;7.17;;;24.50;62.50;;;;;;5145679;27;20509;-43
2021/09/04 02:03:18;;;;;;;7.27;6.67;;;24.30;60.00;;;;;;5145418;27;20445;-40
2021/09/04 02:05:49;;;;;;;7.47;6.87;;;24.20;58.60;;;;;;5145555;27;20834;-38
2021/09/04 02:08:20;;;;;;;8.00;7.20;;;24.00;61.00;;;;;;5145569;27;20461;-43
2021/09/04 02:10:51;;;;;;;8.63;7.93;;;23.90;62.70;;;;;;5144951;27;20916;-40
2021/09/04 02:13:24;;;;;;;8.83;8.13;;;23.70;63.20;;;;;;5144914;27;21005;-41
2021/09/04 02:15:55;;;;;;;10.40;9.70;;;23.50;64.20;;;;;;5145427;27;20449;-39
2021/09/04 02:18:27;;;;;;;11.77;10.90;;;23.40;61.80;;;;;;5145343;27;20455;-41
2021/09/04 02:20:58;;;;;;;13.10;12.00;;;23.30;65.20;;;;;;5145389;27;20429;-40
2021/09/04 02:23:29;;;;;;;9.63;8.77;;;23.10;67.10;;;;;;5144853;27;20593;-40
2021/09/04 02:26:00;;;;;;;12.00;11.10;;;23.00;61.30;;;;;;5144631;27;20453;-40
2021/09/04 02:28:33;;;;;;;11.30;10.40;;;22.90;66.40;;;;;;5144670;27;20452;-40
2021/09/04 02:31:05;;;;;;;10.50;9.70;;;22.80;70.00;;;;;;5144978;27;20473;-41
2021/09/04 02:33:36;;;;;;;9.90;9.10;;;22.70;69.50;;;;;;5144982;27;20466;-39
2021/09/04 02:36:07;;;;;;;10.80;9.83;;;22.60;72.10;;;;;;5145206;27;20467;-40
2021/09/04 02:38:38;;;;;;;10.67;9.77;;;22.40;73.80;;;;;;5145009;27;20451;-40
2021/09/04 02:41:09;;;;;;;10.80;9.90;;;22.20;74.80;;;;;;5144649;27;20502;-40
2021/09/04 02:43:42;;;;;;;18.70;17.00;;;22.10;75.60;;;;;;5144482;27;20448;-41
2021/09/04 02:46:13;;;;;;;20.20;18.37;;;22.00;75.50;;;;;;5145048;27;20448;-40
2021/09/04 02:48:45;;;;;;;23.13;21.20;;;21.80;78.10;;;;;;5144943;27;20455;-40
2021/09/04 02:51:15;;;;;;;26.70;24.50;;;21.70;78.90;;;;;;5144985;27;20456;-40
2021/09/04 02:53:46;;;;;;;24.80;22.63;;;21.60;78.60;;;;;;5144550;27;20441;-40
2021/09/04 02:56:17;;;;;;;20.50;18.80;;;21.50;80.20;;;;;;5136363;27;20446;-44
2021/09/04 02:58:50;;;;;;;18.27;16.77;;;21.40;81.70;;;;;;5123887;28;20478;-41
2021/09/04 03:01:21;;;;;;;15.23;13.73;;;21.20;81.50;;;;;;5124271;28;20465;-41
2021/09/04 03:03:52;;;;;;;12.43;11.43;;;21.10;81.40;;;;;;5123797;28;20511;-40
2021/09/04 03:06:23;;;;;;;12.37;11.33;;;21.00;83.70;;;;;;5124286;28;20488;-41
2021/09/04 03:08:55;;;;;;;11.83;10.70;;;21.00;85.40;;;;;;5123322;28;20441;-40
2021/09/04 03:11:26;;;;;;;11.57;10.40;;;20.90;86.40;;;;;;5124251;28;20468;-40
2021/09/04 03:14:01;;;;;;;15.17;13.90;;;20.80;87.30;;;;;;5123494;28;20420;-40
2021/09/04 03:16:32;;;;;;;19.80;18.30;;;20.70;88.90;;;;;;5123907;28;20945;-40
2021/09/04 03:19:03;;;;;;;23.67;21.77;;;20.60;90.40;;;;;;5123093;28;20473;-39
2021/09/04 03:21:34;;;;;;;23.37;21.43;;;20.50;91.10;;;;;;5124090;28;20412;-40
2021/09/04 03:24:05;;;;;;;23.10;20.90;;;20.30;91.20;;;;;;5136589;27;20457;-44
2021/09/04 03:26:36;;;;;;;22.37;20.47;;;20.30;91.80;;;;;;5144375;27;20442;-42
2021/09/04 03:29:08;;;;;;;19.23;17.67;;;20.20;92.40;;;;;;5143810;27;20419;-41
2021/09/04 03:31:40;;;;;;;17.67;16.17;;;20.20;92.80;;;;;;5144256;27;20476;-41
2021/09/04 03:34:11;;;;;;;15.27;13.60;;;20.10;93.50;;;;;;5144060;27;20473;-46
2021/09/04 03:36:42;;;;;;;13.13;12.00;;;19.90;94.10;;;;;;5144306;27;20482;-41
2021/09/04 03:39:13;;;;;;;11.77;10.67;;;19.90;93.80;;;;;;5143210;27;20449;-40
2021/09/04 03:41:44;;;;;;;11.40;10.40;;;19.90;94.70;;;;;;5143892;27;20444;-41
2021/09/04 03:44:17;;;;;;;12.07;10.63;;;19.90;95.00;;;;;;5143679;27;20455;-44
2021/09/04 03:46:48;;;;;;;11.20;10.23;;;19.80;95.50;;;;;;5144337;27;20445;-42
2021/09/04 03:49:19;;;;;;;12.03;11.03;;;19.60;96.30;;;;;;5144032;27;20505;-41
2021/09/04 03:51:50;;;;;;;11.60;10.40;;;19.50;96.50;;;;;;5144548;27;20451;-40
2021/09/04 03:54:21;;;;;;;11.57;10.47;;;19.50;97.00;;;;;;5143221;28;20484;-41
2021/09/04 03:56:53;;;;;;;10.77;9.77;;;19.30;98.10;;;;;;5130796;27;20445;-44
2021/09/04 03:59:26;;;;;;;11.77;10.60;;;19.20;97.80;;;;;;5122836;28;20439;-46
2021/09/04 04:01:57;;;;;;;10.20;9.30;;;19.20;98.70;;;;;;5123498;28;20477;-47
2021/09/04 04:04:28;;;;;;;10.40;9.50;;;19.20;99.20;;;;;;5122961;28;20432;-44
2021/09/04 04:06:59;;;;;;;10.80;9.80;;;19.30;99.70;;;;;;5124002;28;20445;-48
2021/09/04 04:09:30;;;;;;;10.57;9.57;;;19.20;99.60;;;;;;5122690;28;20445;-44
2021/09/04 04:12:01;;;;;;;10.63;9.50;;;19.10;99.90;;;;;;5123733;28;20445;-44
2021/09/04 04:14:33;;;;;;;11.77;10.67;;;19.00;99.90;;;;;;5122842;28;20488;-50
2021/09/04 04:17:05;;;;;;;14.40;13.20;;;19.00;99.90;;;;;;5123397;28;20549;-49
2021/09/04 04:19:35;;;;;;;12.20;11.03;;;18.80;99.90;;;;;;5123142;28;20462;-45
2021/09/04 04:22:06;;;;;;;11.20;10.20;;;18.70;99.90;;;;;;5123690;28;20400;-42
2021/09/04 04:24:37;;;;;;;11.50;10.40;;;18.70;99.90;;;;;;5140835;28;20452;-48
2021/09/04 04:27:08;;;;;;;12.50;10.60;;;18.70;99.90;;;;;;5144135;28;20445;-48
2021/09/04 04:29:41;;;;;;;11.97;10.03;;;18.60;99.90;;;;;;5143701;27;20445;-45
2021/09/04 04:32:12;;;;;;;11.23;10.23;;;18.60;99.90;;;;;;5147943;27;20512;-45
2021/09/04 04:34:44;;;;;;;11.83;10.67;;;18.50;99.90;;;;;;5147874;27;20445;-42
2021/09/04 04:37:15;;;;;;;14.80;13.47;;;18.50;99.90;;;;;;5148146;27;20429;-41
2021/09/04 04:39:45;;;;;;;28.33;25.73;;;18.50;99.90;;;;;;5146888;27;20448;-45
2021/09/04 04:42:17;;;;;;;27.70;25.20;;;18.40;99.90;;;;;;5147688;27;20448;-43
2021/09/04 04:44:49;;;;;;;27.40;25.00;;;18.30;99.90;;;;;;5147361;27;20517;-43
2021/09/04 04:47:20;;;;;;;22.00;19.97;;;18.30;99.90;;;;;;5147828;27;20591;-49
2021/09/04 04:49:51;;;;;;;19.80;17.97;;;18.30;99.90;;;;;;5147610;27;20436;-45
2021/09/04 04:52:22;;;;;;;17.50;15.80;;;18.20;99.90;;;;;;5147724;27;20479;-48
2021/09/04 04:54:53;;;;;;;14.00;12.80;;;18.20;99.90;;;;;;5146445;27;20430;-42
2021/09/04 04:57:24;;;;;;;13.23;11.90;;;18.10;99.90;;;;;;5129256;27;20987;-47
2021/09/04 04:59:56;;;;;;;12.80;11.70;;;18.00;99.90;;;;;;5126659;28;20449;-44
2021/09/04 05:02:27;;;;;;;12.53;11.37;;;18.00;99.90;;;;;;5126726;28;20445;-43
2021/09/04 05:04:59;;;;;;;12.07;10.87;;;18.00;99.90;;;;;;5126730;28;20467;-40
2021/09/04 05:07:30;;;;;;;12.97;11.77;;;17.90;99.90;;;;;;5126733;28;20514;-40
2021/09/04 05:10:01;;;;;;;13.07;11.97;;;17.90;99.90;;;;;;5125800;28;20445;-40
2021/09/04 05:12:32;;;;;;;13.00;11.70;;;17.90;99.90;;;;;;5126090;28;20441;-41
2021/09/04 05:15:05;;;;;;;11.23;10.23;;;17.90;99.90;;;;;;5126053;28;20480;-45
2021/09/04 05:17:37;;;;;;;11.40;10.33;;;17.90;99.90;;;;;;5126272;28;20437;-45
2021/09/04 05:20:09;;;;;;;10.50;9.60;;;17.80;99.90;;;;;;5126176;28;20522;-42
2021/09/04 05:22:42;;;;;;;10.57;9.60;;;17.80;99.90;;;;;;5127331;27;20450;-41
2021/09/04 05:25:13;;;;;;;10.73;9.70;;;17.70;99.90;;;;;;5146108;27;20459;-42
2021/09/04 05:27:45;;;;;;;9.20;8.40;;;17.70;99.90;;;;;;5146272;27;20445;-41
2021/09/04 05:30:18;;;;;;;9.63;8.63;;;17.60;99.90;;;;;;5146116;27;20500;-43
2021/09/04 05:32:49;;;;;;;9.60;8.43;;;17.50;99.90;;;;;;5146294;27;20476;-43
2021/09/04 05:35:21;;;;;;;9.70;8.80;;;17.50;99.90;;;;;;5146668;27;20441;-42
2021/09/04 05:37:52;;;;;;;11.83;8.97;;;17.60;99.90;;;;;;5146013;27;20455;-46
2021/09/04 05:40:22;;;;;;;10.40;9.40;;;17.60;99.90;;;;;;5145677;27;20449;-43
2021/09/04 05:42:53;;;;;;;15.50;14.20;;;17.50;99.90;;;;;;5145313;27;20476;-41
2021/09/04 05:45:26;;;;;;;20.90;19.00;;;17.40;99.90;;;;;;5146098;27;20765;-40
2021/09/04 05:47:57;;;;;;;20.77;18.90;;;17.40;99.90;;;;;;5145866;27;20876;-42
2021/09/04 05:50:28;;;;;;;17.87;16.37;;;17.30;99.90;;;;;;5146145;27;21008;-41
2021/09/04 05:52:59;;;;;;;14.50;13.30;;;17.40;99.90;;;;;;5145535;27;20455;-42
2021/09/04 05:55:30;;;;;;;13.40;12.20;;;17.30;99.90;;;;;;5143724;27;20449;-39
2021/09/04 05:58:01;;;;;;;13.07;11.97;;;17.30;99.90;;;;;;5124869;28;20446;-42
2021/09/04 06:00:33;;;;;;;11.83;10.83;;;17.20;99.90;;;;;;5125130;28;20477;-44
2021/09/04 06:03:05;;;;;;;10.63;9.60;;;17.20;99.90;;;;;;5125107;28;20540;-40
2021/09/04 06:05:36;;;;;;;11.10;10.10;;;17.10;99.90;;;;;;5125056;28;20441;-40
2021/09/04 06:08:07;;;;;;;10.47;9.60;;;17.10;99.90;;;;;;5124741;28;20442;-40
2021/09/04 06:10:39;;;;;;;10.03;9.07;;;17.00;99.90;;;;;;5124569;28;20509;-40
2021/09/04 06:13:10;;;;;;;10.00;9.10;;;16.90;99.90;;;;;;5124577;28;20474;-42
2021/09/04 06:15:43;;;;;;;9.00;8.10;;;16.80;99.90;;;;;;5124697;28;20464;-41
2021/09/04 06:18:14;;;;;;;10.10;9.00;;;16.80;99.90;;;;;;5124610;28;20505;-40
2021/09/04 06:20:45;;;;;;;9.30;8.40;;;16.70;99.90;;;;;;5124867;28;20441;-42
2021/09/04 06:23:16;;;;;;;9.50;8.23;;;16.70;99.90;;;;;;5131311;27;20473;-43
2021/09/04 06:25:47;;;;;;;10.60;9.60;;;16.60;99.90;;;;;;5144538;27;20463;-42
2021/09/04 06:28:18;;;;;;;11.07;10.07;;;16.70;99.90;;;;;;5144843;27;20452;-39
2021/09/04 06:30:51;;;;;;;10.03;9.13;;;16.70;99.90;;;;;;5144857;27;20512;-41
2021/09/04 06:33:22;;;;;;;10.00;8.97;;;16.70;99.90;;;;;;5145150;27;20437;-40
2021/09/04 06:35:53;;;;;;;9.67;8.87;;;16.60;99.90;;;;;;5145145;27;20440;-43
2021/09/04 06:38:24;;;;;;;10.20;9.10;;;16.60;99.90;;;;;;5144641;27;20459;-39
2021/09/04 06:40:55;;;;;;;10.07;8.57;;;16.50;99.90;;;;;;5144503;27;20482;-43
2021/09/04 06:43:26;;;;;;;11.43;9.40;;;16.50;99.90;;;;;;5144656;27;20449;-42
2021/09/04 06:45:58;;;;;;;10.73;9.53;;;16.50;99.90;;;;;;5144653;27;20441;-41
2021/09/04 06:48:30;;;;;;;8.70;7.90;;;16.50;99.90;;;;;;5144939;27;20735;-40
2021/09/04 06:51:00;;;;;;;9.17;8.40;;;16.40;99.90;;;;;;5144893;27;20472;-41
2021/09/04 06:53:31;;;;;;;9.07;8.30;;;16.40;99.90;;;;;;5143691;27;20448;-40
2021/09/04 06:56:02;;;;;;;9.53;8.53;;;16.30;99.90;;;;;;5137910;27;20445;-41
2021/09/04 06:58:33;;;;;;;9.17;8.37;;;16.30;99.90;;;;;;5123809;28;20465;-39
2021/09/04 07:01:06;;;;;;;9.77;8.77;;;16.30;99.90;;;;;;5124274;28;20506;-41
2021/09/04 07:03:37;;;;;;;9.73;7.60;;;16.30;99.90;;;;;;5124383;28;20806;-40
2021/09/04 07:06:09;;;;;;;9.03;8.10;;;16.20;99.90;;;;;;5124149;28;20426;-41
2021/09/04 07:08:40;;;;;;;8.77;7.87;;;16.20;99.90;;;;;;5123618;28;20481;-43
2021/09/04 07:11:11;;;;;;;11.17;10.07;;;16.20;99.90;;;;;;5123717;28;20859;-40
2021/09/04 07:13:42;;;;;;;9.63;8.93;;;16.20;99.90;;;;;;5123531;28;20450;-41
2021/09/04 07:16:14;;;;;;;9.63;8.63;;;16.10;99.90;;;;;;5123954;28;20486;-42
2021/09/04 07:18:45;;;;;;;9.87;8.60;;;16.00;99.90;;;;;;5124265;28;20433;-41
2021/09/04 07:21:16;;;;;;;10.60;8.93;;;15.90;99.90;;;;;;5123985;28;20473;-41
2021/09/04 07:23:47;;;;;;;10.23;8.70;;;16.00;99.90;;;;;;5134952;27;20444;-39
2021/09/04 07:26:18;;;;;;;9.00;8.10;;;15.90;99.90;;;;;;5144313;27;20448;-40
2021/09/04 07:28:49;;;;;;;9.63;8.73;;;15.80;99.90;;;;;;5144028;27;20452;-40
2021/09/04 07:31:22;;;;;;;9.67;8.83;;;15.80;99.90;;;;;;5144284;27;20594;-38
2021/09/04 07:33:53;;;;;;;9.37;8.50;;;15.80;99.90;;;;;;5144854;27;20433;-39
2021/09/04 07:36:24;;;;;;;10.60;9.00;;;15.70;99.90;;;;;;5144139;27;20540;-41
2021/09/04 07:38:56;;;;;;;9.10;8.30;;;15.70;99.90;;;;;;5143872;27;20445;-39
2021/09/04 07:41:27;;;;;;;8.30;7.60;;;15.70;99.90;;;;;;5144524;27;20476;-45
2021/09/04 07:43:58;;;;;;;8.40;7.60;;;15.60;99.90;;;;;;5143832;27;20445;-39
2021/09/04 07:46:31;;;;;;;8.80;7.77;;;15.60;99.90;;;;;;5144579;27;20805;-39
2021/09/04 07:49:02;;;;;;;7.73;7.03;;;15.60;99.90;;;;;;5144415;28;20421;-40
2021/09/04 07:51:33;;;;;;;8.37;7.67;;;15.60;99.90;;;;;;5144407;28;20510;-42
2021/09/04 07:54:04;;;;;;;8.80;7.90;;;15.60;99.90;;;;;;5143512;28;20445;-39
2021/09/04 07:56:35;;;;;;;7.20;6.60;;;15.60;99.90;;;;;;5133578;27;20450;-39
2021/09/04 07:59:06;;;;;;;7.53;6.83;;;15.60;99.90;;;;;;5123028;28;20446;-38
2021/09/04 08:01:39;;;;;;;8.60;7.87;;;15.50;99.90;;;;;;5123961;28;20483;-39
2021/09/04 08:04:10;;;;;;;9.67;7.20;;;15.50;99.90;;;;;;5124379;28;20441;-39
2021/09/04 08:06:41;;;;;;;8.33;7.63;;;15.50;99.90;;;;;;5127878;28;20446;-39
2021/09/04 08:09:12;;;;;;;9.20;7.43;;;15.40;99.90;;;;;;5127093;28;20449;-42
2021/09/04 08:11:43;;;;;;;7.80;7.10;;;15.50;99.90;;;;;;5127819;28;20477;-44
2021/09/04 08:14:14;;;;;;;8.60;7.67;;;15.40;99.90;;;;;;5127354;28;20460;-43
2021/09/04 08:16:46;;;;;;;7.63;6.97;;;15.40;99.90;;;;;;5127840;28;20447;-43
2021/09/04 08:19:17;;;;;;;8.37;7.57;;;15.30;99.90;;;;;;5127478;28;20479;-44
2021/09/04 08:21:48;;;;;;;7.67;6.97;;;15.20;99.90;;;;;;5127643;28;20516;-44
2021/09/04 08:24:20;;;;;;;10.80;8.70;;;15.10;99.90;;;;;;5142534;27;20504;-39
2021/09/04 08:26:51;;;;;;;7.90;6.90;;;15.10;99.90;;;;;;5148101;27;20440;-41
2021/09/04 08:29:22;;;;;;;8.33;7.60;;;15.00;99.90;;;;;;5147353;27;20470;-40
2021/09/04 08:31:55;;;;;;;7.33;6.73;;;15.00;99.90;;;;;;5147774;27;20884;-39
2021/09/04 08:34:27;;;;;;;7.97;7.20;;;15.00;99.90;;;;;;5147952;27;20429;-38
2021/09/04 08:36:58;;;;;;;7.60;6.90;;;15.00;99.90;;;;;;5148100;27;20441;-38
2021/09/04 08:39:29;;;;;;;7.43;6.70;;;15.00;99.90;;;;;;5146487;27;20550;-38
2021/09/04 08:42:00;;;;;;;8.10;7.30;;;15.00;99.90;;;;;;5147890;27;20944;-39
2021/09/04 08:44:31;;;;;;;7.93;7.13;;;14.90;99.90;;;;;;5147359;27;20544;-38
2021/09/04 08:47:04;;;;;;;8.27;7.57;;;14.90;99.90;;;;;;5147747;27;20448;-36
2021/09/04 08:49:36;;;;;;;9.03;8.20;;;14.90;99.90;;;;;;5147218;27;20437;-39
2021/09/04 08:52:08;;;;;;;7.70;7.00;;;14.90;99.90;;;;;;5147653;27;20488;-38
2021/09/04 08:54:39;;;;;;;7.63;6.33;;;14.80;99.90;;;;;;5146701;27;20445;-39
2021/09/04 08:57:10;;;;;;;7.57;6.93;;;14.80;99.90;;;;;;5131528;27;20449;-39
2021/09/04 08:59:41;;;;;;;8.17;7.37;;;14.80;99.90;;;;;;5126233;28;20463;-38
2021/09/04 09:02:17;;;;;;;7.63;7.03;;;14.80;99.90;;;;;;5127017;28;20462;-39
2021/09/04 09:05:02;;;;;;;7.93;7.23;;;14.80;99.90;;;;;;5126731;28;20430;-38
2021/09/04 09:07:43;;;;;;;8.20;7.53;;;14.60;99.90;;;;;;5126395;28;20442;-38
2021/09/04 09:10:32;;;;;;;7.83;7.13;;;14.70;99.90;;;;;;5126170;28;20494;-39
2021/09/04 09:13:03;;;;;;;7.43;6.73;;;14.70;99.90;;;;;;5125781;27;20521;-38
2021/09/04 09:15:36;;;;;;;9.40;7.87;;;14.70;99.90;;;;;;5125890;28;20446;-42
2021/09/04 09:18:10;;;;;;;7.63;6.87;;;14.60;99.90;;;;;;5125884;28;20848;-38
2021/09/04 09:20:43;;;;;;;8.30;7.40;;;14.60;99.90;;;;;;5126214;28;20495;-41
2021/09/04 09:23:15;;;;;;;8.30;7.50;;;14.60;99.90;;;;;;5132382;27;20453;-37
2021/09/04 09:25:47;;;;;;;7.47;6.80;;;14.60;99.90;;;;;;5146114;27;20456;-38
2021/09/04 09:28:20;;;;;;;8.83;7.03;;;14.50;99.90;;;;;;5146079;27;20445;-38
2021/09/04 09:30:52;;;;;;;8.47;7.77;;;14.40;99.90;;;;;;5146270;27;20509;-38
2021/09/04 09:33:27;;;;;;;8.00;6.87;;;14.40;99.90;;;;;;5146382;27;20503;-38
2021/09/04 09:36:00;;;;;;;7.67;7.00;;;14.30;99.90;;;;;;5146221;27;20425;-40
2021/09/04 09:38:32;;;;;;;8.13;7.30;;;14.30;99.90;;;;;;5145820;27;20505;-39
2021/09/04 09:41:05;;;;;;;8.13;7.43;;;14.30;99.90;;;;;;5145883;27;20453;-38
2021/09/04 09:43:36;;;;;;;7.70;7.10;;;14.30;99.90;;;;;;5146029;27;20437;-39
2021/09/04 09:46:08;;;;;;;8.30;7.50;;;14.20;99.90;;;;;;5146297;27;20928;-38
2021/09/04 09:48:42;;;;;;;8.30;7.50;;;14.20;99.90;;;;;;5146113;27;20500;-39
2021/09/04 09:51:14;;;;;;;8.10;7.40;;;14.20;99.90;;;;;;5146195;27;20437;-39
2021/09/04 09:53:46;;;;;;;7.70;6.93;;;14.20;99.90;;;;;;5145880;27;20596;-38
2021/09/04 09:56:17;;;;;;;9.57;7.80;;;14.20;99.90;;;;;;5137515;27;20446;-38
2021/09/04 09:58:48;;;;;;;7.50;6.80;;;14.20;99.90;;;;;;5124871;28;20481;-39
2021/09/04 10:01:19;;;;;;;8.20;7.40;;;14.20;99.90;;;;;;5125403;28;20452;-39
2021/09/04 10:03:53;;;;;;;7.90;7.20;;;14.20;99.90;;;;;;5125066;28;20446;-38
2021/09/04 10:06:24;;;;;;;8.10;7.40;;;14.10;99.90;;;;;;5125407;28;20955;-38
2021/09/04 10:08:55;;;;;;;8.03;7.20;;;14.10;99.90;;;;;;5124354;28;20465;-38
2021/09/04 10:11:26;;;;;;;7.63;6.80;;;14.00;99.90;;;;;;5125158;28;20523;-39
2021/09/04 10:13:57;;;;;;;7.63;6.90;;;14.00;99.90;;;;;;5124506;27;20489;-38
2021/09/04 10:16:28;;;;;;;7.20;6.60;;;14.00;99.90;;;;;;5124783;28;20507;-38
2021/09/04 10:19:02;;;;;;;6.90;6.30;;;13.90;99.90;;;;;;5124482;28;20513;-38
2021/09/04 10:21:39;;;;;;;7.83;7.03;;;13.90;99.90;;;;;;5124874;28;20450;-38
2021/09/04 10:24:11;;;;;;;7.53;6.63;;;13.80;99.90;;;;;;5138592;27;20436;-38
2021/09/04 10:26:43;;;;;;;7.90;7.20;;;13.80;99.90;;;;;;5145312;27;20445;-37
2021/09/04 10:29:15;;;;;;;8.33;6.40;;;13.80;99.90;;;;;;5144652;27;20463;-38
2021/09/04 10:31:49;;;;;;;8.40;7.60;;;13.80;99.90;;;;;;5145102;27;20499;-38
2021/09/04 10:34:31;;;;;;;11.07;7.80;;;13.80;99.90;;;;;;5144886;27;20518;-42
2021/09/04 10:37:08;;;;;;;7.97;7.20;;;13.90;99.90;;;;;;5145179;27;20526;-39
2021/09/04 10:39:58;;;;;;;7.63;6.90;;;13.80;99.90;;;;;;5143939;27;20932;-40
2021/09/04 10:42:31;;;;;;;8.27;7.47;;;13.70;99.90;;;;;;5144902;27;20907;-42
2021/09/04 10:45:05;;;;;;;7.77;7.07;;;13.70;99.90;;;;;;5145220;27;20426;-39
2021/09/04 10:47:44;;;;;;;8.27;6.83;;;13.70;99.90;;;;;;5144912;27;20440;-42
2021/09/04 10:50:18;;;;;;;7.73;7.03;;;13.70;99.90;;;;;;5144515;27;20493;-39
2021/09/04 10:53:02;;;;;;;8.53;7.73;;;13.60;99.90;;;;;;5144204;27;20489;-39
2021/09/04 10:55:34;;;;;;;9.00;8.07;;;13.70;99.90;;;;;;5142329;27;20472;-45
2021/09/04 10:58:08;;;;;;;8.70;7.80;;;13.60;99.90;;;;;;5123641;28;20452;-41
2021/09/04 11:00:42;;;;;;;9.07;8.17;;;13.60;99.90;;;;;;5124160;28;20446;-41
2021/09/04 11:03:14;;;;;;;9.10;8.30;;;13.50;99.90;;;;;;5124265;28;20426;-39
2021/09/04 11:05:49;;;;;;;9.03;8.23;;;13.50;99.90;;;;;;5123986;28;20484;-39
2021/09/04 11:08:40;;;;;;;8.73;7.80;;;13.50;99.90;;;;;;5123644;28;20450;-38
2021/09/04 11:11:35;;;;;;;8.43;6.80;;;13.50;99.90;;;;;;5123417;28;20468;-41
2021/09/04 11:14:17;;;;;;;8.30;7.43;;;13.50;99.90;;;;;;5123271;28;20519;-39
2021/09/04 11:16:51;;;;;;;9.33;8.43;;;13.40;99.90;;;;;;5123974;28;20446;-39
2021/09/04 11:19:24;;;;;;;8.93;8.10;;;13.40;99.90;;;;;;5123358;28;20574;-39
2021/09/04 11:22:03;;;;;;;9.93;9.03;;;13.30;99.90;;;;;;5124142;28;20441;-41
2021/09/04 11:24:36;;;;;;;9.20;8.17;;;13.40;99.90;;;;;;5140866;27;20428;-41
2021/09/04 11:27:12;;;;;;;9.63;8.73;;;13.30;99.90;;;;;;5144399;27;20491;-38
2021/09/04 11:29:47;;;;;;;9.80;8.27;;;13.30;99.90;;;;;;5143759;27;20437;-43
2021/09/04 11:32:20;;;;;;;9.63;8.57;;;13.30;99.90;;;;;;5144024;27;20628;-38
2021/09/04 11:34:53;;;;;;;9.70;8.80;;;13.30;99.90;;;;;;5143898;27;20488;-38
2021/09/04 11:37:31;;;;;;;9.53;8.73;;;13.30;99.90;;;;;;5144114;27;20444;-41
2021/09/04 11:40:06;;;;;;;8.67;7.80;;;13.30;99.90;;;;;;5143163;27;20485;-38
2021/09/04 11:42:39;;;;;;;9.87;8.87;;;13.20;99.90;;;;;;5143577;27;20551;-38
2021/09/04 11:45:11;;;;;;;9.13;8.33;;;13.10;99.90;;;;;;5144055;27;20532;-38
2021/09/04 11:47:44;;;;;;;10.77;8.73;;;13.10;99.90;;;;;;5143999;27;20456;-39
2021/09/04 11:50:23;;;;;;;10.83;9.37;;;13.10;99.90;;;;;;5143886;27;20509;-41
2021/09/04 11:52:56;;;;;;;9.70;8.80;;;13.20;99.90;;;;;;5143571;27;20449;-38
2021/09/04 11:55:28;;;;;;;11.87;10.67;;;13.20;99.90;;;;;;5142469;27;20500;-38
2021/09/04 11:58:01;;;;;;;12.47;10.90;;;13.20;99.90;;;;;;5123064;28;20430;-38
2021/09/04 12:00:34;;;;;;;11.10;10.10;;;13.10;99.90;;;;;;5123411;28;20565;-39
2021/09/04 12:03:07;;;;;;;10.63;9.67;;;13.10;99.90;;;;;;5123153;28;20481;-39
2021/09/04 12:05:39;;;;;;;12.00;10.80;;;13.00;99.90;;;;;;5123137;28;20453;-37
2021/09/04 12:08:15;;;;;;;11.40;9.73;;;13.00;99.90;;;;;;5122836;28;20480;-38
2021/09/04 12:10:47;;;;;;;14.13;11.23;;;13.00;99.90;;;;;;5122819;28;20441;-39
2021/09/04 12:13:24;;;;;;;10.93;9.57;;;13.00;99.90;;;;;;5123052;28;20434;-38
2021/09/04 12:15:55;;;;;;;12.67;10.77;;;13.00;99.90;;;;;;5123070;28;20450;-38
2021/09/04 12:18:31;;;;;;;11.50;10.40;;;12.90;99.90;;;;;;5123049;28;20437;-38
2021/09/04 12:21:24;;;;;;;12.77;11.50;;;12.90;99.90;;;;;;5123181;28;20473;-39
2021/09/04 12:24:02;;;;;;;11.23;10.03;;;12.90;99.90;;;;;;5134940;28;20516;-38
2021/09/04 12:26:34;;;;;;;12.63;11.23;;;12.90;99.90;;;;;;5143435;28;20487;-41
2021/09/04 12:29:08;;;;;;;11.87;10.73;;;12.90;99.90;;;;;;5143117;28;20440;-38
2021/09/04 12:32:06;;;;;;;13.67;12.27;;;12.90;99.90;;;;;;5143798;28;20541;-40
2021/09/04 12:34:38;;;;;;;14.43;12.30;;;12.90;99.90;;;;;;5143549;28;20473;-43
2021/09/04 12:37:26;;;;;;;16.90;14.80;;;12.80;99.90;;;;;;5143576;27;20471;-40
2021/09/04 12:40:10;;;;;;;15.03;13.53;;;12.80;99.90;;;;;;5142866;27;20448;-39
2021/09/04 12:42:42;;;;;;;15.40;13.30;;;12.80;99.90;;;;;;5143071;27;20456;-42
2021/09/04 12:45:16;;;;;;;14.37;13.03;;;12.80;99.90;;;;;;5143296;28;20456;-42
2021/09/04 12:47:48;;;;;;;14.70;13.13;;;12.70;99.90;;;;;;5143529;27;20544;-41
2021/09/04 12:50:24;;;;;;;14.63;13.10;;;12.70;99.90;;;;;;5143463;27;20434;-39
2021/09/04 12:53:07;;;;;;;14.90;13.33;;;12.70;99.90;;;;;;5146630;27;20433;-38
2021/09/04 12:55:51;;;;;;;14.10;12.70;;;12.60;99.90;;;;;;5146559;27;20500;-40
2021/09/04 12:58:23;;;;;;;14.30;12.80;;;12.60;99.90;;;;;;5146804;27;20440;-42
2021/09/04 13:01:07;;;;;;;13.60;12.00;;;12.50;99.90;;;;;;5147016;27;20559;-39
2021/09/04 13:03:39;;;;;;;14.27;12.83;;;12.50;99.90;;;;;;5146917;27;20449;-39
2021/09/04 13:06:10;;;;;;;15.03;12.33;;;12.50;99.90;;;;;;5146660;27;20452;-40